createdAt,value
2023-02-23T00:02:17.281Z,47.93
2023-02-23T00:08:28.855Z,46.43
2023-02-23T00:10:58.847Z,47.10
2023-02-23T00:13:28.723Z,49.27
2023-02-23T00:15:58.447Z,48.03
2023-02-23T00:18:30.259Z,47.90
2023-02-23T00:21:00.786Z,47.67
2023-02-23T00:23:33.267Z,48.80
2023-02-23T00:26:05.202Z,47.50
2023-02-23T00:28:35.268Z,50.97
2023-02-23T00:31:05.514Z,48.73
2023-02-23T00:33:35.219Z,55.97
2023-02-23T00:36:09.543Z,58.17
2023-02-23T00:38:42.813Z,56.30
2023-02-23T00:41:17.176Z,59.53
2023-02-23T00:43:47.787Z,58.73
2023-02-23T00:46:19.324Z,59.60
2023-02-23T00:48:49.157Z,58.93
2023-02-23T00:51:20.471Z,56.27
2023-02-23T00:53:57.207Z,61.63
2023-02-23T00:56:27.292Z,63.53
2023-02-23T00:58:57.835Z,66.00
2023-02-23T01:01:28.208Z,63.27
2023-02-23T01:03:57.928Z,62.83
2023-02-23T01:06:27.634Z,55.27
2023-02-23T01:08:59.910Z,60.73
2023-02-23T01:11:31.322Z,62.07
2023-02-23T01:14:03.153Z,61.67
2023-02-23T01:16:35.200Z,59.07
2023-02-23T01:19:07.696Z,59.07
2023-02-23T01:21:39.429Z,62.83
2023-02-23T01:24:12.699Z,58.90
2023-02-23T01:26:44.287Z,53.23
2023-02-23T01:29:16.416Z,53.93
2023-02-23T01:31:48.764Z,57.17
2023-02-23T01:34:18.702Z,57.37
2023-02-23T01:36:48.770Z,57.10
2023-02-23T01:39:23.302Z,56.63
2023-02-23T01:41:54.599Z,52.90
2023-02-23T01:44:54.267Z,55.77
2023-02-23T01:47:24.030Z,55.30
2023-02-23T01:49:54.108Z,54.70
2023-02-23T01:52:23.911Z,49.53
2023-02-23T01:54:58.019Z,57.13
2023-02-23T01:57:28.264Z,65.80
2023-02-23T01:59:58.492Z,60.43
2023-02-23T02:02:34.021Z,57.83
2023-02-23T02:05:13.210Z,59.70
2023-02-23T02:07:48.629Z,58.40
2023-02-23T02:10:33.656Z,65.07
2023-02-23T02:13:06.033Z,61.80
2023-02-23T02:15:40.583Z,64.63
2023-02-23T02:18:18.894Z,65.80
2023-02-23T02:21:26.967Z,63.40
2023-02-23T02:24:22.638Z,60.93
2023-02-23T02:27:13.821Z,75.07
2023-02-23T02:30:13.976Z,62.00
2023-02-23T02:33:11.201Z,57.63
2023-02-23T02:36:17.981Z,62.90
2023-02-23T02:38:59.000Z,54.87
2023-02-23T02:41:41.702Z,57.20
2023-02-23T02:44:16.942Z,60.17
2023-02-23T02:46:51.838Z,62.23
2023-02-23T02:49:35.319Z,59.20
2023-02-23T02:52:14.653Z,54.67
2023-02-23T02:54:53.630Z,54.63
2023-02-23T02:57:28.052Z,55.47
2023-02-23T03:00:10.296Z,49.93
2023-02-23T03:02:55.418Z,51.90
2023-02-23T03:05:44.103Z,52.27
2023-02-23T03:08:36.418Z,52.43
2023-02-23T03:11:23.335Z,61.83
2023-02-23T03:14:18.095Z,52.17
2023-02-23T03:17:11.522Z,51.10
2023-02-23T03:20:02.189Z,53.90
2023-02-23T03:22:51.240Z,55.33
2023-02-23T03:25:40.090Z,50.87
2023-02-23T03:28:34.151Z,49.83
2023-02-23T03:31:23.456Z,54.73
2023-02-23T03:34:11.887Z,51.13
2023-02-23T03:37:02.174Z,49.13
2023-02-23T03:39:50.848Z,50.33
2023-02-23T03:42:37.608Z,51.63
2023-02-23T03:45:28.307Z,47.03
2023-02-23T03:48:13.294Z,44.37
2023-02-23T03:51:00.028Z,47.07
2023-02-23T03:53:49.179Z,44.87
2023-02-23T03:56:34.344Z,47.10
2023-02-23T03:59:19.561Z,44.37
2023-02-23T04:02:09.169Z,44.60
2023-02-23T04:04:52.277Z,42.43
2023-02-23T04:07:35.449Z,41.60
2023-02-23T04:10:18.717Z,51.10
2023-02-23T04:13:07.576Z,41.23
2023-02-23T04:15:38.280Z,42.40
2023-02-23T04:18:14.938Z,49.07
2023-02-23T04:20:44.750Z,53.70
2023-02-23T04:23:14.559Z,44.67
2023-02-23T04:25:44.392Z,44.67
2023-02-23T04:28:14.153Z,44.30
2023-02-23T04:30:43.979Z,43.63
2023-02-23T04:33:16.671Z,43.07
2023-02-23T04:35:46.579Z,42.23
2023-02-23T04:38:16.336Z,39.07
2023-02-23T04:40:46.158Z,38.27
2023-02-23T04:43:16.733Z,36.47
2023-02-23T04:45:50.079Z,38.77
2023-02-23T04:48:25.214Z,35.23
2023-02-23T04:50:55.622Z,33.07
2023-02-23T04:53:25.640Z,34.63
2023-02-23T04:55:55.403Z,36.40
2023-02-23T04:58:25.152Z,30.23
2023-02-23T05:00:54.928Z,32.07
2023-02-23T05:03:27.370Z,29.73
2023-02-23T05:05:57.139Z,29.00
2023-02-23T05:08:26.986Z,33.60
2023-02-23T05:10:56.828Z,31.47
2023-02-23T05:13:26.647Z,31.07
2023-02-23T05:16:00.465Z,31.13
2023-02-23T05:18:32.881Z,28.67
2023-02-23T05:21:06.176Z,31.37
2023-02-23T05:23:36.439Z,28.03
2023-02-23T05:26:08.411Z,26.87
2023-02-23T05:28:40.086Z,26.53
2023-02-23T05:31:10.380Z,24.80
2023-02-23T05:33:43.432Z,26.20
2023-02-23T05:36:15.389Z,28.77
2023-02-23T05:38:45.882Z,26.00
2023-02-23T05:41:19.529Z,24.20
2023-02-23T05:43:51.284Z,22.23
2023-02-23T05:46:24.256Z,23.90
2023-02-23T05:49:00.901Z,25.00
2023-02-23T05:51:31.860Z,19.90
2023-02-23T05:54:01.959Z,21.13
2023-02-23T05:56:31.742Z,23.30
2023-02-23T05:59:02.597Z,21.30
2023-02-23T06:01:32.406Z,20.73
2023-02-23T06:04:06.204Z,18.53
2023-02-23T06:06:36.187Z,22.03
2023-02-23T06:09:06.462Z,21.43
2023-02-23T06:11:36.656Z,21.63
2023-02-23T06:14:06.479Z,21.87
2023-02-23T06:16:36.363Z,22.70
2023-02-23T06:19:09.423Z,21.30
2023-02-23T06:21:39.295Z,20.53
2023-02-23T06:24:09.850Z,22.90
2023-02-23T06:26:39.675Z,21.60
2023-02-23T06:29:09.460Z,18.50
2023-02-23T06:31:39.323Z,21.27
2023-02-23T06:34:12.717Z,20.13
2023-02-23T06:36:42.490Z,21.27
2023-02-23T06:39:15.355Z,23.47
2023-02-23T06:41:45.315Z,22.57
2023-02-23T06:44:15.403Z,23.13
2023-02-23T06:46:45.210Z,21.93
2023-02-23T06:49:17.689Z,20.00
2023-02-23T06:51:47.725Z,21.83
2023-02-23T06:54:17.790Z,19.57
2023-02-23T06:56:47.588Z,22.00
2023-02-23T06:59:17.346Z,22.40
2023-02-23T07:01:47.429Z,23.67
2023-02-23T07:04:20.103Z,23.87
2023-02-23T07:06:49.902Z,22.00
2023-02-23T07:09:22.570Z,21.17
2023-02-23T07:11:52.388Z,23.00
2023-02-23T07:14:26.824Z,23.33
2023-02-23T07:16:57.138Z,25.67
2023-02-23T07:19:29.538Z,23.07
2023-02-23T07:21:59.597Z,25.33
2023-02-23T07:24:30.084Z,26.90
2023-02-23T07:26:59.851Z,21.40
2023-02-23T07:29:30.459Z,25.33
2023-02-23T07:32:00.422Z,26.50
2023-02-23T07:34:32.919Z,25.00
2023-02-23T07:37:02.721Z,25.30
2023-02-23T07:39:32.631Z,24.20
2023-02-23T07:42:02.389Z,23.50
2023-02-23T07:44:32.138Z,21.73
2023-02-23T07:47:01.958Z,25.70
2023-02-23T07:49:34.420Z,22.43
2023-02-23T07:52:04.427Z,24.33
2023-02-23T07:54:34.943Z,22.00
2023-02-23T07:57:04.783Z,20.80
2023-02-23T07:59:35.014Z,20.97
2023-02-23T08:02:04.822Z,23.50
2023-02-23T08:04:37.281Z,32.37
2023-02-23T08:07:07.154Z,25.27
2023-02-23T08:09:36.908Z,27.80
2023-02-23T08:12:07.102Z,31.80
2023-02-23T08:14:36.966Z,32.47
2023-02-23T08:17:07.041Z,27.83
2023-02-23T08:19:40.233Z,27.63
2023-02-23T08:22:10.357Z,27.70
2023-02-23T08:24:40.582Z,36.93
2023-02-23T08:27:10.381Z,37.37
2023-02-23T08:29:40.170Z,30.10
2023-02-23T08:32:10.114Z,32.87
2023-02-23T08:34:45.131Z,38.90
2023-02-23T08:39:53.886Z,43.93
2023-02-23T08:42:23.855Z,41.33
2023-02-23T08:44:53.752Z,35.47
2023-02-23T08:47:24.406Z,38.30
2023-02-23T08:49:57.110Z,39.07
2023-02-23T08:52:26.939Z,37.53
2023-02-23T08:54:57.642Z,37.27
2023-02-23T08:57:27.413Z,38.20
2023-02-23T08:59:57.354Z,35.83
2023-02-23T09:02:27.776Z,42.97
2023-02-23T09:05:00.218Z,39.47
2023-02-23T09:07:30.084Z,40.00
2023-02-23T09:10:00.669Z,36.77
2023-02-23T09:12:30.459Z,48.10
2023-02-23T09:15:00.440Z,48.00
2023-02-23T09:17:31.896Z,47.37
2023-02-23T09:20:04.424Z,44.33
2023-02-23T09:22:36.856Z,45.30
2023-02-23T09:25:08.768Z,53.40
2023-02-23T09:27:38.549Z,54.47
2023-02-23T09:30:12.336Z,53.00
2023-02-23T09:32:43.279Z,51.90
2023-02-23T09:35:18.051Z,57.97
2023-02-23T09:37:49.182Z,59.27
2023-02-23T09:40:25.504Z,64.87
2023-02-23T09:43:03.868Z,63.60
2023-02-23T09:45:41.918Z,69.00
2023-02-23T09:48:23.725Z,62.47
2023-02-23T09:51:10.450Z,61.83
2023-02-23T09:53:44.542Z,66.57
2023-02-23T09:56:21.586Z,69.83
2023-02-23T09:58:55.334Z,65.30
2023-02-23T10:01:55.956Z,62.20
2023-02-23T10:04:34.132Z,54.73
2023-02-23T10:07:24.134Z,51.07
2023-02-23T10:10:07.000Z,66.43
2023-02-23T10:12:55.216Z,59.40
2023-02-23T10:15:44.424Z,53.87
2023-02-23T10:18:40.621Z,60.73
2023-02-23T10:21:20.192Z,58.30
2023-02-23T10:23:59.882Z,59.90
2023-02-23T10:26:32.430Z,63.57
2023-02-23T10:29:02.950Z,59.00
2023-02-23T10:31:44.405Z,62.83
2023-02-23T10:34:21.275Z,58.60
2023-02-23T10:36:59.140Z,55.17
2023-02-23T10:39:33.294Z,62.60
2023-02-23T10:42:12.489Z,65.20
2023-02-23T10:44:54.522Z,70.30
2023-02-23T10:47:28.623Z,61.87
2023-02-23T10:50:01.360Z,58.97
2023-02-23T10:52:42.901Z,66.93
2023-02-23T10:55:27.494Z,83.47
2023-02-23T10:58:17.071Z,79.17
2023-02-23T11:00:58.567Z,75.83
2023-02-23T11:03:35.565Z,78.40
2023-02-23T11:06:07.598Z,85.37
2023-02-23T11:08:41.482Z,89.97
2023-02-23T11:11:33.211Z,90.77
2023-02-23T11:14:20.040Z,80.13
2023-02-23T11:16:49.943Z,78.43
2023-02-23T11:19:27.904Z,85.97
2023-02-23T11:21:58.177Z,78.93
2023-02-23T11:24:31.377Z,84.40
2023-02-23T11:27:06.894Z,87.87
2023-02-23T11:29:41.882Z,74.53
2023-02-23T11:32:19.524Z,80.03
2023-02-23T11:34:51.522Z,80.07
2023-02-23T11:37:26.117Z,84.00
2023-02-23T11:40:04.073Z,91.77
2023-02-23T11:42:49.545Z,86.43
2023-02-23T11:45:22.366Z,95.43
2023-02-23T11:47:56.595Z,83.97
2023-02-23T11:50:47.152Z,69.60
2023-02-23T11:53:24.937Z,75.23
2023-02-23T11:58:50.146Z,76.07
2023-02-23T12:01:23.823Z,78.73
2023-02-23T12:03:56.579Z,72.67
2023-02-23T12:06:33.323Z,40.90
2023-02-23T12:12:09.388Z,18.10
2023-02-23T12:14:52.395Z,16.63
2023-02-23T12:17:28.725Z,14.70
2023-02-23T12:20:03.153Z,19.23
2023-02-23T12:22:39.568Z,15.73
2023-02-23T12:25:20.405Z,21.07
2023-02-23T12:27:59.046Z,23.30
2023-02-23T12:30:43.395Z,17.60
2023-02-23T12:33:18.066Z,17.80
2023-02-23T12:35:57.492Z,37.57
2023-02-23T12:38:36.123Z,43.17
2023-02-23T12:41:13.481Z,42.33
2023-02-23T12:43:51.746Z,38.77
2023-02-23T12:46:28.363Z,40.30
2023-02-23T12:49:07.042Z,41.00
2023-02-23T12:51:41.149Z,37.17
2023-02-23T12:54:13.529Z,34.67
2023-02-23T12:56:57.826Z,47.90
2023-02-23T12:59:53.434Z,39.63
2023-02-23T13:02:32.527Z,32.10
2023-02-23T13:05:22.721Z,32.07
2023-02-23T13:08:12.966Z,25.83
2023-02-23T13:10:54.254Z,31.10
2023-02-23T13:13:33.231Z,37.43
2023-02-23T13:16:08.858Z,47.57
2023-02-23T13:18:45.957Z,41.67
2023-02-23T13:21:22.927Z,35.17
2023-02-23T13:24:02.593Z,29.60
2023-02-23T13:26:39.707Z,34.30
2023-02-23T13:29:20.811Z,36.63
2023-02-23T13:31:51.077Z,31.73
2023-02-23T13:34:29.690Z,37.60
2023-02-23T13:37:01.768Z,37.23
2023-02-23T13:39:47.926Z,27.83
2023-02-23T13:42:29.249Z,28.93
2023-02-23T13:45:09.988Z,30.47
2023-02-23T13:47:49.159Z,28.77
2023-02-23T13:50:29.415Z,35.57
2023-02-23T13:53:05.222Z,29.20
2023-02-23T13:55:51.810Z,26.97
2023-02-23T13:58:28.892Z,23.60
2023-02-23T14:01:10.843Z,27.10
2023-02-23T14:03:47.694Z,22.87
2023-02-23T14:06:22.666Z,29.30
2023-02-23T14:08:59.250Z,20.43
2023-02-23T14:11:46.477Z,25.57
2023-02-23T14:14:46.809Z,26.10
2023-02-23T14:17:50.817Z,27.27
2023-02-23T14:20:39.057Z,31.23
2023-02-23T14:23:37.343Z,26.30
2023-02-23T14:26:41.109Z,23.40
2023-02-23T14:29:33.152Z,19.43
2023-02-23T14:32:06.580Z,23.67
2023-02-23T14:34:52.461Z,27.50
2023-02-23T14:37:32.104Z,20.67
2023-02-23T14:40:12.294Z,22.97
2023-02-23T14:42:43.628Z,23.40
2023-02-23T14:45:25.770Z,19.10
2023-02-23T14:48:00.139Z,19.27
2023-02-23T14:50:32.815Z,19.57
2023-02-23T14:53:05.522Z,17.03
2023-02-23T14:55:45.751Z,18.73
2023-02-23T14:58:38.482Z,18.93
2023-02-23T15:01:08.783Z,17.20
2023-02-23T15:03:38.673Z,17.50
2023-02-23T15:06:16.707Z,20.00
2023-02-23T15:08:49.522Z,14.53
2023-02-23T15:11:23.445Z,13.43
2023-02-23T15:13:55.281Z,22.00
2023-02-23T15:16:32.114Z,15.37
2023-02-23T15:19:09.895Z,13.93
2023-02-23T15:21:42.820Z,18.47
2023-02-23T15:24:16.740Z,15.33
2023-02-23T15:26:52.233Z,14.50
2023-02-23T15:29:37.292Z,14.67
2023-02-23T15:32:23.849Z,12.20
2023-02-23T15:34:55.727Z,16.17
2023-02-23T15:37:34.454Z,11.37
2023-02-23T15:40:09.655Z,15.43
2023-02-23T15:42:45.758Z,12.33
2023-02-23T15:45:23.075Z,14.00
2023-02-23T15:47:56.984Z,15.77
2023-02-23T15:50:37.056Z,9.27
2023-02-23T15:53:13.903Z,18.00
2023-02-23T15:55:46.627Z,16.43
2023-02-23T15:58:24.847Z,15.43
2023-02-23T16:00:59.645Z,12.40
2023-02-23T16:03:33.808Z,13.03
2023-02-23T16:06:09.069Z,12.50
2023-02-23T16:08:38.918Z,12.33
2023-02-23T16:11:14.169Z,14.10
2023-02-23T16:13:50.728Z,11.00
2023-02-23T16:16:25.756Z,14.67
2023-02-23T16:19:01.572Z,11.80
2023-02-23T16:21:35.396Z,14.07
2023-02-23T16:24:12.059Z,14.50
2023-02-23T16:26:50.551Z,10.43
2023-02-23T16:29:41.624Z,13.83
2023-02-23T16:32:20.088Z,7.73
2023-02-23T16:34:52.804Z,8.17
2023-02-23T16:37:28.000Z,13.67
2023-02-23T16:39:58.848Z,7.80
2023-02-23T16:42:31.954Z,9.63
2023-02-23T16:45:05.321Z,11.23
2023-02-23T16:47:43.793Z,10.77
2023-02-23T16:50:20.270Z,11.47
2023-02-23T16:52:54.617Z,16.23
2023-02-23T16:55:28.130Z,8.47
2023-02-23T16:58:00.469Z,8.53
2023-02-23T17:00:35.723Z,9.07
2023-02-23T17:03:05.740Z,10.13
2023-02-23T17:05:36.329Z,8.30
2023-02-23T17:08:06.669Z,8.03
2023-02-23T17:10:38.174Z,10.10
2023-02-23T17:13:10.464Z,9.77
2023-02-23T17:15:51.977Z,9.60
2023-02-23T17:20:56.433Z,12.63
2023-02-23T17:23:28.643Z,7.70
2023-02-23T17:25:59.225Z,10.03
2023-02-23T17:28:29.294Z,12.50
2023-02-23T17:31:04.639Z,12.10
2023-02-23T17:33:36.586Z,12.80
2023-02-23T17:36:09.254Z,8.83
2023-02-23T17:38:44.301Z,10.57
2023-02-23T17:41:17.838Z,10.53
2023-02-23T17:43:51.244Z,7.57
2023-02-23T17:46:32.795Z,7.63
2023-02-23T17:49:04.691Z,7.87
2023-02-23T17:51:37.078Z,13.27
2023-02-23T17:54:11.198Z,8.57
2023-02-23T17:56:41.210Z,7.27
2023-02-23T17:59:11.314Z,6.33
2023-02-23T18:01:47.350Z,9.57
2023-02-23T18:04:20.364Z,8.13
2023-02-23T18:06:52.013Z,10.77
2023-02-23T18:09:38.346Z,6.20
2023-02-23T18:12:11.394Z,9.60
2023-02-23T18:14:45.747Z,7.63
2023-02-23T18:17:24.525Z,8.13
2023-02-23T18:19:58.682Z,5.30
2023-02-23T18:22:32.141Z,6.77
2023-02-23T18:25:04.872Z,7.70
2023-02-23T18:27:34.780Z,9.43
2023-02-23T18:30:15.435Z,6.73
2023-02-23T18:32:48.405Z,12.40
2023-02-23T18:35:19.206Z,8.03
2023-02-23T18:37:58.149Z,8.27
2023-02-23T18:40:38.551Z,9.77
2023-02-23T18:43:20.020Z,8.33
2023-02-23T18:45:59.148Z,7.63
2023-02-23T18:48:31.681Z,7.43
2023-02-23T18:51:01.726Z,8.20
2023-02-23T18:53:31.895Z,9.27
2023-02-23T18:56:07.086Z,10.80
2023-02-23T18:58:37.742Z,5.77
2023-02-23T19:01:18.231Z,6.23
2023-02-23T19:03:52.392Z,3.83
2023-02-23T19:06:24.060Z,6.50
2023-02-23T19:08:56.561Z,7.60
2023-02-23T19:11:28.366Z,6.70
2023-02-23T19:13:59.836Z,5.53
2023-02-23T19:16:31.459Z,4.60
2023-02-23T19:19:04.512Z,6.90
2023-02-23T19:21:34.546Z,8.00
2023-02-23T19:24:04.937Z,7.07
2023-02-23T19:26:35.982Z,3.77
2023-02-23T19:29:06.104Z,4.07
2023-02-23T19:31:37.513Z,5.57
2023-02-23T19:34:09.988Z,2.97
2023-02-23T19:36:40.076Z,5.43
2023-02-23T19:39:11.175Z,4.87
2023-02-23T19:41:42.550Z,3.70
2023-02-23T19:44:13.138Z,4.93
2023-02-23T19:46:43.270Z,3.50
2023-02-23T19:49:15.845Z,3.80
2023-02-23T19:51:45.730Z,6.73
2023-02-23T19:54:15.531Z,7.00
2023-02-23T19:56:45.448Z,4.57
2023-02-23T19:59:15.496Z,4.90
2023-02-23T20:01:46.450Z,14.43
2023-02-23T20:04:18.890Z,13.07
2023-02-23T20:06:48.698Z,8.30
2023-02-23T20:09:18.605Z,7.50
2023-02-23T20:11:48.614Z,4.00
2023-02-23T20:14:22.202Z,9.77
2023-02-23T20:16:52.023Z,3.53
2023-02-23T20:19:24.530Z,4.53
2023-02-23T20:21:54.379Z,4.93
2023-02-23T20:24:24.367Z,5.33
2023-02-23T20:26:56.394Z,4.83
2023-02-23T20:29:28.215Z,3.50
2023-02-23T20:32:00.070Z,3.80
2023-02-23T20:34:32.989Z,6.57
2023-02-23T20:37:04.391Z,2.90
2023-02-23T20:39:34.170Z,3.73
2023-02-23T20:42:04.038Z,5.37
2023-02-23T20:44:33.837Z,4.80
2023-02-23T20:47:08.249Z,1.87
2023-02-23T20:49:41.430Z,5.23
2023-02-23T20:52:12.262Z,2.03
2023-02-23T20:54:42.278Z,4.70
2023-02-23T20:57:12.162Z,4.17
2023-02-23T20:59:43.353Z,3.77
2023-02-23T21:02:15.414Z,4.07
2023-02-23T21:04:47.924Z,6.97
2023-02-23T21:07:17.696Z,2.97
2023-02-23T21:09:47.594Z,6.20
2023-02-23T21:12:17.547Z,5.07
2023-02-23T21:14:47.319Z,2.70
2023-02-23T21:17:17.160Z,4.33
2023-02-23T21:19:49.528Z,5.87
2023-02-23T21:22:19.338Z,4.27
2023-02-23T21:24:49.099Z,3.67
2023-02-23T21:27:18.864Z,5.43
2023-02-23T21:29:48.765Z,2.83
2023-02-23T21:32:18.712Z,3.60
2023-02-23T21:34:51.507Z,4.37
2023-02-23T21:37:21.261Z,4.47
2023-02-23T21:39:52.256Z,4.10
2023-02-23T21:42:24.122Z,4.77
2023-02-23T21:44:53.904Z,6.77
2023-02-23T21:47:23.946Z,5.03
2023-02-23T21:49:56.466Z,4.70
2023-02-23T21:52:26.253Z,8.00
2023-02-23T21:54:56.248Z,3.87
2023-02-23T21:57:28.350Z,4.50
2023-02-23T21:59:58.216Z,3.63
2023-02-23T22:02:30.711Z,3.07
2023-02-23T22:05:03.260Z,2.33
2023-02-23T22:07:34.000Z,3.10
2023-02-23T22:10:04.861Z,4.37
2023-02-23T22:12:35.404Z,3.50
2023-02-23T22:15:08.452Z,4.10
2023-02-23T22:17:38.761Z,2.37
2023-02-23T22:20:14.718Z,2.47
2023-02-23T22:22:44.494Z,2.20
2023-02-23T22:25:14.246Z,4.10
2023-02-23T22:27:44.283Z,4.20
2023-02-23T22:30:16.519Z,4.17
2023-02-23T22:32:47.878Z,4.57
2023-02-23T22:35:20.540Z,3.47
2023-02-23T22:37:50.317Z,12.03
2023-02-23T22:40:20.871Z,6.43
2023-02-23T22:42:54.824Z,4.87
2023-02-23T22:45:24.626Z,6.23
2023-02-23T22:47:55.697Z,6.57
2023-02-23T22:50:28.129Z,9.20
2023-02-23T22:52:58.348Z,8.17
2023-02-23T22:55:29.463Z,5.10
2023-02-23T22:58:00.863Z,7.13
2023-02-23T23:00:31.038Z,3.50
2023-02-23T23:03:02.152Z,5.23
2023-02-23T23:05:35.729Z,6.73
2023-02-23T23:08:06.472Z,2.87
2023-02-23T23:10:36.255Z,5.03
2023-02-23T23:13:08.666Z,4.47
2023-02-23T23:15:39.115Z,2.77
2023-02-23T23:18:14.117Z,3.97
2023-02-23T23:20:46.643Z,4.20
2023-02-23T23:23:17.301Z,6.13
2023-02-23T23:25:49.712Z,4.50
2023-02-23T23:28:24.332Z,3.90
2023-02-23T23:30:56.281Z,4.07
2023-02-23T23:33:27.119Z,4.60
2023-02-23T23:35:59.513Z,8.43
2023-02-23T23:38:29.625Z,5.20
2023-02-23T23:41:10.108Z,5.03
2023-02-23T23:43:40.763Z,3.43
2023-02-23T23:46:10.822Z,5.43
2023-02-23T23:48:42.817Z,5.20
2023-02-23T23:51:15.961Z,4.30
2023-02-23T23:53:46.016Z,4.53
2023-02-23T23:56:15.955Z,2.87
2023-02-23T23:58:46.497Z,5.40
